LiveATC.Net - Listen to live air traffic control over the Internet!


ICAO: LFLP  IATA: NCY   Airport: Annecy-Meythet Airport
City: Annecy
Country: France   Continent: Europe
LFLP METAR Weather: LFLP 221830Z AUTO 02014KT CAVOK 19/05 Q1021 NOSIG
LFLP Flight Activity (FlightAware)

LFLP Twr/LFLB App
Feed Status: DOWN
Last heard on: 2018-06-22 18:14:03 (0 days 0 hours 56 minutes ago)
LFLP Twr/LFLB App Audio Archives
FacilityFrequency
Annecy Tower118.200
Chambery Approach121.200
Chambery Info123.700
NOTE: Reception might be deteriorated due to terrain surrounding feed

NOTICE

Unauthorized use prohibited. See LiveATC.net Terms of Service


Find LiveATC Audio Streams


Airport/ARTCC Code

Frequency Search
(e.g., 124.400, 128.75)
Site-wide search
 


Browse LiveATC Feeds
LiveATC Coverage Map
Top 50 LiveATC Feeds
Bad Weather Areas

LiveATC FAQ
Offer a LiveATC Feed
Contact LiveATC.net
Press Inquiries

LiveATC on iPhone
LiveATC on Android

Windows Phone
Windows 8/10

LiveATC Mobile
(Mobile browser)

ATC Audio Archives
Interesting Recordings

LiveATC Forums


Home Page
About LiveATC.net
Make a Donation
Terms of Use
Privacy Policy

Canadian Air Freqs

AIRMETs/SIGMETs

FAA Airport Status
Nat'l Airspace Status
Arrival Demand Charts


Server Software By:
Icecast.org
Liquidsoap